sensor_id;sensor_type;location;lat;lon;timestamp;pressure;altitude;pressure_sealevel;temperature;humidity
59789;BME280;47353;51.614;5.530;2024-01-27T00:00:18;103363.28;;;2.03;100.00
59789;BME280;47353;51.614;5.530;2024-01-27T00:02:43;103366.00;;;2.03;100.00
59789;BME280;47353;51.614;5.530;2024-01-27T00:05:09;103369.16;;;1.91;100.00
59789;BME280;47353;51.614;5.530;2024-01-27T00:07:34;103364.91;;;1.96;100.00
59789;BME280;47353;51.614;5.530;2024-01-27T00:10:01;103367.81;;;1.95;100.00
59789;BME280;47353;51.614;5.530;2024-01-27T00:12:26;103365.19;;;2.11;100.00
59789;BME280;47353;51.614;5.530;2024-01-27T00:14:52;103362.53;;;2.19;100.00
59789;BME280;47353;51.614;5.530;2024-01-27T00:17:17;103365.03;;;2.12;100.00
59789;BME280;47353;51.614;5.530;2024-01-27T00:19:44;103359.09;;;2.17;100.00
59789;BME280;47353;51.614;5.530;2024-01-27T00:22:10;103358.19;;;2.08;100.00
59789;BME280;47353;51.614;5.530;2024-01-27T00:24:35;103358.94;;;2.18;100.00
59789;BME280;47353;51.614;5.530;2024-01-27T00:27:01;103361.69;;;2.01;100.00
59789;BME280;47353;51.614;5.530;2024-01-27T00:29:26;103373.91;;;1.89;100.00
59789;BME280;47353;51.614;5.530;2024-01-27T00:31:51;103374.63;;;1.91;100.00
59789;BME280;47353;51.614;5.530;2024-01-27T00:34:19;103376.63;;;1.89;100.00
59789;BME280;47353;51.614;5.530;2024-01-27T00:36:45;103379.53;;;1.87;100.00
59789;BME280;47353;51.614;5.530;2024-01-27T00:39:17;103380.88;;;1.83;100.00
59789;BME280;47353;51.614;5.530;2024-01-27T00:41:43;103379.25;;;1.73;100.00
59789;BME280;47353;51.614;5.530;2024-01-27T00:44:09;103376.97;;;1.86;100.00
59789;BME280;47353;51.614;5.530;2024-01-27T00:46:36;103368.06;;;1.84;100.00
59789;BME280;47353;51.614;5.530;2024-01-27T00:49:02;103378.53;;;1.70;100.00
59789;BME280;47353;51.614;5.530;2024-01-27T00:51:27;103382.63;;;1.66;100.00
59789;BME280;47353;51.614;5.530;2024-01-27T00:53:53;103384.31;;;1.67;100.00
59789;BME280;47353;51.614;5.530;2024-01-27T00:56:18;103382.63;;;1.66;100.00
59789;BME280;47353;51.614;5.530;2024-01-27T00:58:43;103382.22;;;1.61;100.00
59789;BME280;47353;51.614;5.530;2024-01-27T01:01:09;103391.19;;;1.54;100.00
59789;BME280;47353;51.614;5.530;2024-01-27T01:03:34;103389.16;;;1.56;100.00
59789;BME280;47353;51.614;5.530;2024-01-27T01:05:59;103388.63;;;1.52;100.00
59789;BME280;47353;51.614;5.530;2024-01-27T01:08:25;103379.16;;;1.47;100.00
59789;BME280;47353;51.614;5.530;2024-01-27T01:10:50;103378.53;;;1.53;100.00
59789;BME280;47353;51.614;5.530;2024-01-27T01:13:16;103388.94;;;1.49;100.00
59789;BME280;47353;51.614;5.530;2024-01-27T01:15:41;103389.69;;;1.42;100.00
59789;BME280;47353;51.614;5.530;2024-01-27T01:18:07;103380.91;;;1.48;100.00
59789;BME280;47353;51.614;5.530;2024-01-27T01:20:33;103387.41;;;1.37;100.00
59789;BME280;47353;51.614;5.530;2024-01-27T01:22:58;103394.38;;;1.32;100.00
59789;BME280;47353;51.614;5.530;2024-01-27T01:25:24;103393.50;;;1.31;100.00
59789;BME280;47353;51.614;5.530;2024-01-27T01:27:49;103394.06;;;1.35;100.00
59789;BME280;47353;51.614;5.530;2024-01-27T01:30:16;103401.31;;;1.44;100.00
59789;BME280;47353;51.614;5.530;2024-01-27T01:32:42;103392.25;;;1.43;100.00
59789;BME280;47353;51.614;5.530;2024-01-27T01:35:08;103394.84;;;1.45;100.00
59789;BME280;47353;51.614;5.530;2024-01-27T01:37:35;103395.13;;;1.42;100.00
59789;BME280;47353;51.614;5.530;2024-01-27T01:40:00;103396.88;;;1.43;100.00
59789;BME280;47353;51.614;5.530;2024-01-27T01:42:25;103391.72;;;1.40;100.00
59789;BME280;47353;51.614;5.530;2024-01-27T01:44:51;103384.63;;;1.47;100.00
59789;BME280;47353;51.614;5.530;2024-01-27T01:47:17;103393.44;;;1.41;100.00
59789;BME280;47353;51.614;5.530;2024-01-27T01:49:43;103394.38;;;1.32;100.00
59789;BME280;47353;51.614;5.530;2024-01-27T01:52:08;103395.09;;;1.34;100.00
59789;BME280;47353;51.614;5.530;2024-01-27T01:54:34;103394.53;;;1.30;100.00
59789;BME280;47353;51.614;5.530;2024-01-27T01:57:00;103406.00;;;1.34;100.00
59789;BME280;47353;51.614;5.530;2024-01-27T01:59:25;103398.44;;;1.28;100.00
59789;BME280;47353;51.614;5.530;2024-01-27T02:01:51;103400.28;;;1.27;100.00
59789;BME280;47353;51.614;5.530;2024-01-27T02:04:16;103388.97;;;1.22;100.00
59789;BME280;47353;51.614;5.530;2024-01-27T02:06:41;103398.19;;;1.21;100.00
59789;BME280;47353;51.614;5.530;2024-01-27T02:09:07;103402.44;;;1.06;100.00
59789;BME280;47353;51.614;5.530;2024-01-27T02:11:32;103401.16;;;1.01;100.00
59789;BME280;47353;51.614;5.530;2024-01-27T02:13:58;103403.09;;;0.91;100.00
59789;BME280;47353;51.614;5.530;2024-01-27T02:16:23;103396.94;;;0.89;100.00
59789;BME280;47353;51.614;5.530;2024-01-27T02:18:49;103402.28;;;0.81;100.00
59789;BME280;47353;51.614;5.530;2024-01-27T02:21:14;103394.66;;;0.84;100.00
59789;BME280;47353;51.614;5.530;2024-01-27T02:23:39;103392.25;;;0.81;100.00
59789;BME280;47353;51.614;5.530;2024-01-27T02:26:05;103398.81;;;0.88;100.00
59789;BME280;47353;51.614;5.530;2024-01-27T02:28:30;103410.41;;;0.90;100.00
59789;BME280;47353;51.614;5.530;2024-01-27T02:30:58;103409.81;;;0.96;100.00
59789;BME280;47353;51.614;5.530;2024-01-27T02:33:25;103403.78;;;0.93;100.00
59789;BME280;47353;51.614;5.530;2024-01-27T02:35:50;103406.66;;;0.91;100.00
59789;BME280;47353;51.614;5.530;2024-01-27T02:38:16;103411.44;;;0.89;100.00
59789;BME280;47353;51.614;5.530;2024-01-27T02:40:41;103408.72;;;0.89;100.00
59789;BME280;47353;51.614;5.530;2024-01-27T02:43:07;103409.56;;;0.90;100.00
59789;BME280;47353;51.614;5.530;2024-01-27T02:45:32;103401.38;;;0.90;100.00
59789;BME280;47353;51.614;5.530;2024-01-27T02:47:57;103404.81;;;0.92;100.00
59789;BME280;47353;51.614;5.530;2024-01-27T02:50:23;103410.94;;;1.03;100.00
59789;BME280;47353;51.614;5.530;2024-01-27T02:52:48;103400.91;;;0.94;100.00
59789;BME280;47353;51.614;5.530;2024-01-27T02:55:13;103392.72;;;0.94;100.00
59789;BME280;47353;51.614;5.530;2024-01-27T02:57:40;103400.56;;;1.07;100.00
59789;BME280;47353;51.614;5.530;2024-01-27T03:00:06;103402.28;;;1.08;100.00
59789;BME280;47353;51.614;5.530;2024-01-27T03:02:32;103403.91;;;1.01;100.00
59789;BME280;47353;51.614;5.530;2024-01-27T03:04:57;103408.94;;;0.96;100.00
59789;BME280;47353;51.614;5.530;2024-01-27T03:07:23;103401.22;;;0.91;100.00
59789;BME280;47353;51.614;5.530;2024-01-27T03:09:48;103405.31;;;0.78;100.00
59789;BME280;47353;51.614;5.530;2024-01-27T03:12:14;103414.25;;;0.70;100.00
59789;BME280;47353;51.614;5.530;2024-01-27T03:14:41;103413.53;;;0.68;100.00
59789;BME280;47353;51.614;5.530;2024-01-27T03:17:07;103411.72;;;0.59;100.00
59789;BME280;47353;51.614;5.530;2024-01-27T03:19:32;103417.84;;;0.71;100.00
59789;BME280;47353;51.614;5.530;2024-01-27T03:21:58;103420.88;;;0.68;100.00
59789;BME280;47353;51.614;5.530;2024-01-27T03:24:23;103407.75;;;0.81;100.00
59789;BME280;47353;51.614;5.530;2024-01-27T03:26:49;103405.16;;;0.79;100.00
59789;BME280;47353;51.614;5.530;2024-01-27T03:29:14;103406.03;;;0.80;100.00
59789;BME280;47353;51.614;5.530;2024-01-27T03:31:40;103406.59;;;0.83;100.00
59789;BME280;47353;51.614;5.530;2024-01-27T03:34:05;103405.31;;;0.78;100.00
59789;BME280;47353;51.614;5.530;2024-01-27T03:36:31;103409.59;;;0.80;100.00
59789;BME280;47353;51.614;5.530;2024-01-27T03:38:58;103400.59;;;0.80;100.00
59789;BME280;47353;51.614;5.530;2024-01-27T03:41:23;103405.31;;;0.78;100.00
59789;BME280;47353;51.614;5.530;2024-01-27T03:43:49;103402.59;;;0.78;100.00
59789;BME280;47353;51.614;5.530;2024-01-27T03:46:15;103393.53;;;0.77;100.00
59789;BME280;47353;51.614;5.530;2024-01-27T03:48:40;103405.72;;;0.83;100.00
59789;BME280;47353;51.614;5.530;2024-01-27T03:51:06;103408.91;;;0.78;100.00
59789;BME280;47353;51.614;5.530;2024-01-27T03:53:31;103401.00;;;0.85;100.00
59789;BME280;47353;51.614;5.530;2024-01-27T03:55:57;103404.56;;;0.85;100.00
59789;BME280;47353;51.614;5.530;2024-01-27T03:58:29;103415.19;;;0.79;100.00
59789;BME280;47353;51.614;5.530;2024-01-27T04:00:54;103411.25;;;0.64;100.00
59789;BME280;47353;51.614;5.530;2024-01-27T04:03:20;103420.16;;;0.66;100.00
59789;BME280;47353;51.614;5.530;2024-01-27T04:05:45;103425.31;;;0.69;100.00
59789;BME280;47353;51.614;5.530;2024-01-27T04:08:11;103424.53;;;0.49;100.00
59789;BME280;47353;51.614;5.530;2024-01-27T04:10:36;103428.97;;;0.41;100.00
59789;BME280;47353;51.614;5.530;2024-01-27T04:13:02;103430.00;;;0.40;100.00
59789;BME280;47353;51.614;5.530;2024-01-27T04:15:27;103426.41;;;0.39;100.00
59789;BME280;47353;51.614;5.530;2024-01-27T04:17:53;103426.81;;;0.44;100.00
59789;BME280;47353;51.614;5.530;2024-01-27T04:20:19;103425.63;;;0.56;100.00
59789;BME280;47353;51.614;5.530;2024-01-27T04:22:45;103423.38;;;0.42;100.00
59789;BME280;47353;51.614;5.530;2024-01-27T04:25:10;103422.28;;;0.35;100.00
59789;BME280;47353;51.614;5.530;2024-01-27T04:27:39;103424.72;;;0.29;100.00
59789;BME280;47353;51.614;5.530;2024-01-27T04:30:08;103422.13;;;0.27;100.00
59789;BME280;47353;51.614;5.530;2024-01-27T04:32:35;103415.69;;;0.19;100.00
59789;BME280;47353;51.614;5.530;2024-01-27T04:35:01;103418.56;;;0.17;100.00
59789;BME280;47353;51.614;5.530;2024-01-27T04:37:26;103420.31;;;0.09;100.00
59789;BME280;47353;51.614;5.530;2024-01-27T04:39:51;103432.66;;;0.03;100.00
59789;BME280;47353;51.614;5.530;2024-01-27T04:42:17;103425.31;;;0.03;100.00
59789;BME280;47353;51.614;5.530;2024-01-27T04:44:42;103427.06;;;-0.05;100.00
59789;BME280;47353;51.614;5.530;2024-01-27T04:47:08;103425.91;;;-0.12;100.00
59789;BME280;47353;51.614;5.530;2024-01-27T04:49:34;103426.22;;;-0.15;100.00
59789;BME280;47353;51.614;5.530;2024-01-27T04:51:59;103428.25;;;-0.17;100.00
59789;BME280;47353;51.614;5.530;2024-01-27T04:54:24;103432.94;;;-0.19;100.00
59789;BME280;47353;51.614;5.530;2024-01-27T04:56:50;103434.09;;;-0.22;100.00
59789;BME280;47353;51.614;5.530;2024-01-27T04:59:16;103434.38;;;-0.06;100.00
59789;BME280;47353;51.614;5.530;2024-01-27T05:01:47;103430.22;;;-0.19;100.00
59789;BME280;47353;51.614;5.530;2024-01-27T05:04:12;103423.22;;;-0.31;100.00
59789;BME280;47353;51.614;5.530;2024-01-27T05:06:38;103428.09;;;-0.35;100.00
59789;BME280;47353;51.614;5.530;2024-01-27T05:09:04;103418.47;;;-0.29;100.00
59789;BME280;47353;51.614;5.530;2024-01-27T05:11:32;103423.22;;;-0.31;100.00
59789;BME280;47353;51.614;5.530;2024-01-27T05:14:00;103425.50;;;-0.27;100.00
59789;BME280;47353;51.614;5.530;2024-01-27T05:16:27;103421.78;;;-0.26;100.00
59789;BME280;47353;51.614;5.530;2024-01-27T05:18:53;103420.75;;;-0.25;100.00
59789;BME280;47353;51.614;5.530;2024-01-27T05:21:18;103426.66;;;-0.39;100.00
59789;BME280;47353;51.614;5.530;2024-01-27T05:23:44;103431.53;;;-0.33;100.00
59789;BME280;47353;51.614;5.530;2024-01-27T05:26:09;103433.09;;;-0.21;100.00
59789;BME280;47353;51.614;5.530;2024-01-27T05:28:36;103425.38;;;-0.35;100.00
59789;BME280;47353;51.614;5.530;2024-01-27T05:31:03;103420.06;;;-0.27;100.00
59789;BME280;47353;51.614;5.530;2024-01-27T05:33:29;103414.78;;;-0.28;100.00
59789;BME280;47353;51.614;5.530;2024-01-27T05:35:54;103425.81;;;-0.30;100.00
59789;BME280;47353;51.614;5.530;2024-01-27T05:38:19;103416.19;;;-0.34;100.00
59789;BME280;47353;51.614;5.530;2024-01-27T05:40:45;103413.19;;;-0.31;100.00
59789;BME280;47353;51.614;5.530;2024-01-27T05:43:10;103404.63;;;-0.36;100.00
59789;BME280;47353;51.614;5.530;2024-01-27T05:45:35;103414.91;;;-0.39;100.00
59789;BME280;47353;51.614;5.530;2024-01-27T05:48:02;103402.31;;;-0.50;100.00
59789;BME280;47353;51.614;5.530;2024-01-27T05:50:27;103400.16;;;-0.46;100.00
59789;BME280;47353;51.614;5.530;2024-01-27T05:52:53;103399.59;;;-0.50;100.00
59789;BME280;47353;51.614;5.530;2024-01-27T05:55:18;103396.00;;;-0.41;100.00
59789;BME280;47353;51.614;5.530;2024-01-27T05:57:46;103403.47;;;-0.24;100.00
59789;BME280;47353;51.614;5.530;2024-01-27T06:00:12;103401.56;;;-0.14;100.00
59789;BME280;47353;51.614;5.530;2024-01-27T06:02:38;103405.88;;;-0.11;100.00
59789;BME280;47353;51.614;5.530;2024-01-27T06:05:04;103402.00;;;-0.09;100.00
59789;BME280;47353;51.614;5.530;2024-01-27T06:07:29;103406.28;;;-0.06;100.00
59789;BME280;47353;51.614;5.530;2024-01-27T06:09:55;103400.28;;;-0.10;100.00
59789;BME280;47353;51.614;5.530;2024-01-27T06:12:20;103401.56;;;-0.04;100.00
59789;BME280;47353;51.614;5.530;2024-01-27T06:14:45;103402.44;;;-0.23;100.00
59789;BME280;47353;51.614;5.530;2024-01-27T06:17:12;103397.72;;;-0.21;100.00
59789;BME280;47353;51.614;5.530;2024-01-27T06:19:40;103411.47;;;-0.32;100.00
59789;BME280;47353;51.614;5.530;2024-01-27T06:22:05;103409.31;;;-0.38;100.00
59789;BME280;47353;51.614;5.530;2024-01-27T06:24:31;103402.72;;;-0.45;100.00
59789;BME280;47353;51.614;5.530;2024-01-27T06:26:56;103415.06;;;-0.31;100.00
59789;BME280;47353;51.614;5.530;2024-01-27T06:29:22;103420.06;;;-0.46;100.00
59789;BME280;47353;51.614;5.530;2024-01-27T06:31:48;103419.34;;;-0.48;100.00
59789;BME280;47353;51.614;5.530;2024-01-27T06:34:13;103418.06;;;-0.53;100.00
59789;BME280;47353;51.614;5.530;2024-01-27T06:36:39;103417.03;;;-0.52;100.00
59789;BME280;47353;51.614;5.530;2024-01-27T06:39:04;103410.31;;;-0.58;100.00
59789;BME280;47353;51.614;5.530;2024-01-27T06:41:29;103416.03;;;-0.61;100.00
59789;BME280;47353;51.614;5.530;2024-01-27T06:43:55;103419.63;;;-0.60;100.00
59789;BME280;47353;51.614;5.530;2024-01-27T06:46:20;103417.03;;;-0.62;100.00
59789;BME280;47353;51.614;5.530;2024-01-27T06:48:46;103413.47;;;-0.53;100.00
59789;BME280;47353;51.614;5.530;2024-01-27T06:51:11;103413.06;;;-0.48;100.00
59789;BME280;47353;51.614;5.530;2024-01-27T06:53:36;103416.59;;;-0.48;100.00
59789;BME280;47353;51.614;5.530;2024-01-27T06:56:02;103423.38;;;-0.33;100.00
59789;BME280;47353;51.614;5.530;2024-01-27T06:58:27;103426.66;;;-0.39;100.00
59789;BME280;47353;51.614;5.530;2024-01-27T07:00:53;103424.66;;;-0.27;100.00
59789;BME280;47353;51.614;5.530;2024-01-27T07:03:19;103441.69;;;-0.35;100.00
59789;BME280;47353;51.614;5.530;2024-01-27T07:05:45;103442.81;;;-0.09;100.00
59789;BME280;47353;51.614;5.530;2024-01-27T07:08:10;103450.00;;;-0.17;100.00
59789;BME280;47353;51.614;5.530;2024-01-27T07:10:36;103455.16;;;-0.33;100.00
59789;BME280;47353;51.614;5.530;2024-01-27T07:13:01;103444.69;;;-0.28;100.00
59789;BME280;47353;51.614;5.530;2024-01-27T07:15:27;103452.88;;;-0.28;100.00
59789;BME280;47353;51.614;5.530;2024-01-27T07:17:53;103463.47;;;-0.35;100.00
59789;BME280;47353;51.614;5.530;2024-01-27T07:20:19;103471.63;;;-0.35;100.00
59789;BME280;47353;51.614;5.530;2024-01-27T07:22:47;103466.47;;;-0.38;100.00
59789;BME280;47353;51.614;5.530;2024-01-27T07:25:12;103468.16;;;-0.37;100.00
59789;BME280;47353;51.614;5.530;2024-01-27T07:27:37;103459.00;;;-0.26;100.00
59789;BME280;47353;51.614;5.530;2024-01-27T07:30:03;103457.72;;;-0.32;100.00
59789;BME280;47353;51.614;5.530;2024-01-27T07:32:30;103459.00;;;-0.26;100.00
59789;BME280;47353;51.614;5.530;2024-01-27T07:34:55;103460.03;;;-0.18;100.00
59789;BME280;47353;51.614;5.530;2024-01-27T07:37:21;103466.75;;;-0.31;100.00
59789;BME280;47353;51.614;5.530;2024-01-27T07:39:46;103475.47;;;-0.18;100.00
59789;BME280;47353;51.614;5.530;2024-01-27T07:42:14;103483.22;;;-0.23;100.00
59789;BME280;47353;51.614;5.530;2024-01-27T07:44:39;103479.50;;;-0.13;100.00
59789;BME280;47353;51.614;5.530;2024-01-27T07:47:05;103475.06;;;0.06;100.00
59789;BME280;47353;51.614;5.530;2024-01-27T07:49:30;103478.22;;;0.11;100.00
59789;BME280;47353;51.614;5.530;2024-01-27T07:51:56;103471.31;;;0.07;100.00
59789;BME280;47353;51.614;5.530;2024-01-27T07:54:21;103479.06;;;0.11;100.00
59789;BME280;47353;51.614;5.530;2024-01-27T07:56:47;103481.78;;;0.21;100.00
59789;BME280;47353;51.614;5.530;2024-01-27T07:59:13;103477.19;;;0.21;100.00
59789;BME280;47353;51.614;5.530;2024-01-27T08:01:41;103480.56;;;0.52;100.00
59789;BME280;47353;51.614;5.530;2024-01-27T08:04:09;103472.25;;;0.53;100.00
59789;BME280;47353;51.614;5.530;2024-01-27T08:06:49;103471.34;;;0.62;100.00
59789;BME280;47353;51.614;5.530;2024-01-27T08:09:15;103475.75;;;0.73;100.00
59789;BME280;47353;51.614;5.530;2024-01-27T08:11:40;103474.88;;;0.82;100.00
59789;BME280;47353;51.614;5.530;2024-01-27T08:14:06;103473.59;;;0.76;100.00
59789;BME280;47353;51.614;5.530;2024-01-27T08:16:31;103471.94;;;1.29;100.00
59789;BME280;47353;51.614;5.530;2024-01-27T08:18:56;103466.31;;;1.31;100.00
59789;BME280;47353;51.614;5.530;2024-01-27T08:21:22;103475.19;;;1.33;100.00
59789;BME280;47353;51.614;5.530;2024-01-27T08:23:48;103469.16;;;1.56;100.00
59789;BME280;47353;51.614;5.530;2024-01-27T08:26:13;103467.38;;;1.47;100.00
59789;BME280;47353;51.614;5.530;2024-01-27T08:28:39;103470.19;;;1.91;100.00
59789;BME280;47353;51.614;5.530;2024-01-27T08:31:04;103464.28;;;2.21;100.00
59789;BME280;47353;51.614;5.530;2024-01-27T08:33:30;103455.50;;;2.52;100.00
59789;BME280;47353;51.614;5.530;2024-01-27T08:35:56;103461.75;;;2.96;100.00
59789;BME280;47353;51.614;5.530;2024-01-27T08:38:21;103460.75;;;3.05;100.00
59789;BME280;47353;51.614;5.530;2024-01-27T08:40:46;103459.94;;;3.62;100.00
59789;BME280;47353;51.614;5.530;2024-01-27T08:43:12;103456.00;;;3.73;100.00
59789;BME280;47353;51.614;5.530;2024-01-27T08:45:38;103461.50;;;4.05;100.00
59789;BME280;47353;51.614;5.530;2024-01-27T08:48:07;103473.69;;;4.26;100.00
59789;BME280;47353;51.614;5.530;2024-01-27T08:50:32;103475.91;;;4.31;100.00
59789;BME280;47353;51.614;5.530;2024-01-27T08:52:58;103480.34;;;3.92;100.00
59789;BME280;47353;51.614;5.530;2024-01-27T08:55:23;103476.59;;;3.93;100.00
59789;BME280;47353;51.614;5.530;2024-01-27T08:57:50;103482.75;;;3.95;100.00
59789;BME280;47353;51.614;5.530;2024-01-27T09:00:15;103480.53;;;4.14;100.00
59789;BME280;47353;51.614;5.530;2024-01-27T09:02:42;103484.81;;;4.17;100.00
59789;BME280;47353;51.614;5.530;2024-01-27T09:05:08;103493.34;;;4.70;100.00
59789;BME280;47353;51.614;5.530;2024-01-27T09:07:33;103497.66;;;4.56;100.00
59789;BME280;47353;51.614;5.530;2024-01-27T09:09:59;103489.44;;;5.19;100.00
59789;BME280;47353;51.614;5.530;2024-01-27T09:12:24;103499.59;;;5.88;100.00
59789;BME280;47353;51.614;5.530;2024-01-27T09:14:50;103501.75;;;6.23;100.00
59789;BME280;47353;51.614;5.530;2024-01-27T09:17:15;103510.72;;;6.76;97.40
59789;BME280;47353;51.614;5.530;2024-01-27T09:19:41;103509.38;;;6.58;94.89
59789;BME280;47353;51.614;5.530;2024-01-27T09:22:06;103513.41;;;6.47;99.22
59789;BME280;47353;51.614;5.530;2024-01-27T09:24:31;103521.59;;;7.07;93.18
59789;BME280;47353;51.614;5.530;2024-01-27T09:26:57;103520.69;;;6.77;91.65
59789;BME280;47353;51.614;5.530;2024-01-27T09:29:22;103520.09;;;7.34;88.49
59789;BME280;47353;51.614;5.530;2024-01-27T09:31:48;103518.16;;;6.91;91.80
59789;BME280;47353;51.614;5.530;2024-01-27T09:34:13;103514.19;;;7.22;89.08
59789;BME280;47353;51.614;5.530;2024-01-27T09:36:39;103529.47;;;7.54;84.54
59789;BME280;47353;51.614;5.530;2024-01-27T09:39:04;103532.50;;;7.30;86.68
59789;BME280;47353;51.614;5.530;2024-01-27T09:41:31;103538.13;;;7.22;90.05
59789;BME280;47353;51.614;5.530;2024-01-27T09:44:01;103537.06;;;7.66;86.75
59789;BME280;47353;51.614;5.530;2024-01-27T09:46:28;103540.19;;;7.99;86.01
59789;BME280;47353;51.614;5.530;2024-01-27T09:48:55;103543.31;;;8.25;84.55
59789;BME280;47353;51.614;5.530;2024-01-27T09:51:21;103551.22;;;8.77;82.74
59789;BME280;47353;51.614;5.530;2024-01-27T09:53:47;103556.03;;;9.17;81.99
59789;BME280;47353;51.614;5.530;2024-01-27T09:56:13;103549.00;;;9.95;79.96
59789;BME280;47353;51.614;5.530;2024-01-27T09:58:43;103560.25;;;10.67;73.58
59789;BME280;47353;51.614;5.530;2024-01-27T10:01:16;103558.38;;;10.74;71.05
59789;BME280;47353;51.614;5.530;2024-01-27T10:03:43;103559.44;;;10.67;70.01
59789;BME280;47353;51.614;5.530;2024-01-27T10:06:10;103561.78;;;10.89;69.27
59789;BME280;47353;51.614;5.530;2024-01-27T10:08:36;103568.59;;;11.19;69.71
59789;BME280;47353;51.614;5.530;2024-01-27T10:11:07;103581.88;;;10.18;69.40
59789;BME280;47353;51.614;5.530;2024-01-27T10:13:33;103574.53;;;11.29;71.29
59789;BME280;47353;51.614;5.530;2024-01-27T10:16:05;103560.31;;;11.96;67.00
59789;BME280;47353;51.614;5.530;2024-01-27T10:18:31;103566.50;;;12.36;64.89
59789;BME280;47353;51.614;5.530;2024-01-27T10:20:57;103558.63;;;13.37;63.53
59789;BME280;47353;51.614;5.530;2024-01-27T10:23:22;103570.97;;;13.66;57.97
59789;BME280;47353;51.614;5.530;2024-01-27T10:25:48;103564.31;;;13.49;58.66
59789;BME280;47353;51.614;5.530;2024-01-27T10:28:14;103570.47;;;14.05;55.86
59789;BME280;47353;51.614;5.530;2024-01-27T10:30:40;103557.34;;;13.76;59.21
59789;BME280;47353;51.614;5.530;2024-01-27T10:33:08;103559.53;;;14.40;56.83
59789;BME280;47353;51.614;5.530;2024-01-27T10:35:35;103571.31;;;15.18;54.55
59789;BME280;47353;51.614;5.530;2024-01-27T10:38:01;103569.03;;;15.84;53.04
59789;BME280;47353;51.614;5.530;2024-01-27T10:40:26;103570.03;;;16.17;49.12
59789;BME280;47353;51.614;5.530;2024-01-27T10:43:14;103566.72;;;15.00;49.88
59789;BME280;47353;51.614;5.530;2024-01-27T10:45:42;103572.09;;;14.60;52.50
59789;BME280;47353;51.614;5.530;2024-01-27T10:48:08;103573.75;;;15.14;50.89
59789;BME280;47353;51.614;5.530;2024-01-27T10:50:38;103564.34;;;15.50;50.08
59789;BME280;47353;51.614;5.530;2024-01-27T10:53:08;103566.47;;;15.36;51.40
59789;BME280;47353;51.614;5.530;2024-01-27T10:55:34;103560.41;;;15.74;49.45
59789;BME280;47353;51.614;5.530;2024-01-27T10:58:03;103568.28;;;14.55;52.09
59789;BME280;47353;51.614;5.530;2024-01-27T11:00:29;103558.75;;;14.62;52.65
59789;BME280;47353;51.614;5.530;2024-01-27T11:03:01;103554.47;;;15.70;49.74
59789;BME280;47353;51.614;5.530;2024-01-27T11:05:28;103548.31;;;15.96;48.53
59789;BME280;47353;51.614;5.530;2024-01-27T11:07:58;103544.78;;;16.01;48.10
59789;BME280;47353;51.614;5.530;2024-01-27T11:10:24;103541.56;;;17.10;47.12
59789;BME280;47353;51.614;5.530;2024-01-27T11:12:51;103538.72;;;17.81;42.95
59789;BME280;47353;51.614;5.530;2024-01-27T11:15:17;103546.03;;;18.03;43.27
59789;BME280;47353;51.614;5.530;2024-01-27T11:17:43;103539.75;;;18.18;42.63
59789;BME280;47353;51.614;5.530;2024-01-27T11:20:10;103543.97;;;16.56;44.60
59789;BME280;47353;51.614;5.530;2024-01-27T11:22:37;103544.69;;;16.80;42.83
59789;BME280;47353;51.614;5.530;2024-01-27T11:27:41;103543.56;;;18.07;42.81
59789;BME280;47353;51.614;5.530;2024-01-27T11:30:24;103531.03;;;17.71;42.01
59789;BME280;47353;51.614;5.530;2024-01-27T11:32:50;103532.34;;;17.85;43.05
59789;BME280;47353;51.614;5.530;2024-01-27T11:35:19;103536.50;;;19.11;38.60
59789;BME280;47353;51.614;5.530;2024-01-27T11:37:44;103534.16;;;18.18;40.34
59789;BME280;47353;51.614;5.530;2024-01-27T11:40:10;103534.69;;;17.17;41.66
59789;BME280;47353;51.614;5.530;2024-01-27T11:42:35;103540.28;;;16.11;44.02
59789;BME280;47353;51.614;5.530;2024-01-27T11:45:01;103538.16;;;14.63;47.25
59789;BME280;47353;51.614;5.530;2024-01-27T11:47:27;103523.03;;;14.82;47.38
59789;BME280;47353;51.614;5.530;2024-01-27T11:49:54;103527.28;;;14.44;46.51
59789;BME280;47353;51.614;5.530;2024-01-27T11:52:20;103522.72;;;14.49;46.93
59789;BME280;47353;51.614;5.530;2024-01-27T11:54:53;103510.19;;;13.63;48.97
59789;BME280;47353;51.614;5.530;2024-01-27T11:57:19;103510.16;;;13.81;50.67
59789;BME280;47353;51.614;5.530;2024-01-27T11:59:44;103500.50;;;14.95;47.97
59789;BME280;47353;51.614;5.530;2024-01-27T12:02:10;103501.91;;;14.63;46.21
59789;BME280;47353;51.614;5.530;2024-01-27T12:04:36;103502.97;;;14.51;47.13
59789;BME280;47353;51.614;5.530;2024-01-27T12:07:02;103494.56;;;15.03;45.89
59789;BME280;47353;51.614;5.530;2024-01-27T12:09:27;103499.63;;;15.18;47.18
59789;BME280;47353;51.614;5.530;2024-01-27T12:11:52;103496.69;;;15.36;45.82
59789;BME280;47353;51.614;5.530;2024-01-27T12:14:19;103494.38;;;14.64;45.67
59789;BME280;47353;51.614;5.530;2024-01-27T12:16:44;103516.97;;;15.66;43.99
59789;BME280;47353;51.614;5.530;2024-01-27T12:19:10;103512.72;;;14.83;44.39
59789;BME280;47353;51.614;5.530;2024-01-27T12:21:36;103507.22;;;14.53;45.27
59789;BME280;47353;51.614;5.530;2024-01-27T12:24:02;103506.41;;;15.34;43.98
59789;BME280;47353;51.614;5.530;2024-01-27T12:26:29;103506.72;;;15.83;43.77
59789;BME280;47353;51.614;5.530;2024-01-27T12:28:55;103496.50;;;15.89;42.86
59789;BME280;47353;51.614;5.530;2024-01-27T12:31:23;103501.81;;;16.02;41.68
59789;BME280;47353;51.614;5.530;2024-01-27T12:33:50;103496.84;;;15.92;42.24
59789;BME280;47353;51.614;5.530;2024-01-27T12:36:17;103502.63;;;15.63;45.41
59789;BME280;47353;51.614;5.530;2024-01-27T12:38:56;103505.34;;;13.88;46.47
59789;BME280;47353;51.614;5.530;2024-01-27T12:41:22;103503.75;;;14.81;45.55
59789;BME280;47353;51.614;5.530;2024-01-27T12:43:47;103502.59;;;14.47;46.89